メインページ
METAR-TAF:

METAR-TAF

空港 :

Sarakhs, イラン

緯度: 36-30-04N, 経度: 061-03-54E, 海抜: 288m

現時点の気象観測

当レポートは1時間17分前の17:00(UTC)に作成
無風
気温 6°C
湿度 61%
気圧 1032 hPa
視程10km以上
1,500メートル以下は雲なし、積乱雲なし

METAR: OIMC 171700Z 00000KT CAVOK 06/M01 Q1032

時間: 21:47 (18:17 UTC)


TAF: 見つかりません

4,000以上の空港の気象観測と天気予報(METAR報とTAF報)

利用可能な観測所は地図上に黄色い丸と赤い丸で示す。

丸の上にカーソルを重ねると観測所名を参照できる。

次にクリックすると気象観測と天気予報を参照できる。

マップの切り替え:黒色「×」印の緑ボタンをクリックして拡大、「-」印の緑ボタンをクリックして縮小、緑色の三角印をクリックして隣りの地図に切り替え


METAR-TAF: